Tiempo atmosférico en la estación meteorológica de Villacarriedo, Cantabria (194 m.)



Fecha
DESCASC
Temp. máxima en grados centígrados (hora)
DESCASC
Temp. mínima en grados centígrados (hora)
DESCASC
Temp. media en grados centígrados
DESCASC
Racha de viento máxima en m/sg (hora)
DESCASC
Velocidad máxima media en intervalos de 10 minutos(hora)
DESCASC
Precipitaciones diarias en mm
DESCASC
Precipitaciones de 00:00 a 06:00 en mm
DESCASC
Precipitaciones de 06:00 a 12:00 en mm
DESCASC
Precipitaciones de 12:00 a 18:00 en mm
DESCASC
Precipitaciones de 18:00 a 24:00 en mm
DESCASC
24-09-2020 20.5 (15:30) 12.4 (23:40) 16.4 14.44 (22:50) 6.67 (23:30) 4.8 1.2 0.2 0 3.4
23-09-2020 23.4 (12:10) 14.5 (00:00) 18.9 9.17 (10:20) 5 (10:10) 2.2 0.2 0.2 0 1.8
22-09-2020 23.1 (14:10) 12.5 (00:00) 17.8 6.67 (15:00) 3.89 (15:00) 0 0 0 0 0
21-09-2020 22.2 (15:10) 13.1 (00:00) 17.7 6.11 (16:30) 3.61 (15:40) 0 0 0 0 0
20-09-2020 22.4 (16:20) 10.8 (00:00) 16.6 6.11 (16:40) 3.33 (16:40) 0 0 0 0 0
19-09-2020 22.6 (11:50) 14.8 (00:00) 18.7 9.72 (03:40) 5.28 (13:40) 1.2 0.4 0 0.8 0
18-09-2020 27.2 (17:30) 18.3 (00:00) 22.8 12.78 (02:40) 6.67 (02:40) 4.2 0.2 2.4 0 1.6
17-09-2020 29.2 (15:10) 18.8 (00:00) 24 10.28 (22:30) 6.39 (22:30) 0.8 0.6 0.2 0 0
16-09-2020 27.3 (15:20) 15.1 (00:00) 21.2 5.28 (15:40) 3.33 (15:40) 0.2 0 0.2 0 0
15-09-2020 28.6 (13:40) 16.4 (00:00) 22.5 7.5 (03:40) 3.89 (03:40) 6.6 6.6 0 0 0
14-09-2020 32.4 (13:50) 16.9 (00:00) 24.7 11.11 (05:40) 5 (14:20) 0.2 0 0 0 0.2
13-09-2020 33.4 (15:50) 10.5 (00:00) 22 6.11 (16:30) 3.89 (16:20) 0.2 0 0.2 0 0
12-09-2020 26.6 (16:40) 14 (00:00) 20.3 6.11 (15:10) 3.89 (15:10) 0 0 0 0 0
11-09-2020 27.2 (15:40) 13.3 (00:00) 20.3 6.39 (16:40) 3.89 (16:20) 0 0 0 0 0
10-09-2020 24.5 (15:00) 12.9 (00:00) 18.7 6.94 (16:40) 3.89 (16:40) 0 0 0 0 0
09-09-2020 24.5 (14:40) 8.8 (00:00) 16.7 6.39 (17:40) 4.17 (15:00) 0 0 0 0 0
08-09-2020 23.7 (14:30) 7.5 (00:00) 15.6 8.06 (15:40) 4.44 (15:00) 0 0 0 0 0
07-09-2020 20.7 (16:30) 11.6 (23:59) 16.2 7.5 (16:10) 4.17 (17:00) 0.6 0 0.4 0.2 0
06-09-2020 19.9 (18:20) 15.6 (00:00) 17.8 6.94 (18:40) 3.89 (18:50) 0 0 0 0 0
05-09-2020 20.4 (14:40) 17.4 (00:00) 18.9 5.56 (20:30) 3.06 (12:30) 0.6 0 0.6 0 0
04-09-2020 32.4 (14:30) 10.8 (00:00) 21.6 6.11 (16:40) 3.61 (16:20) 0 0 0 0 0
03-09-2020 27.2 (16:00) 9.5 (00:00) 18.4 4.72 (17:20) 3.06 (17:00) 0 0 0 0 0
02-09-2020 23.4 (16:50) 12.9 (00:00) 18.1 6.94 (15:30) 4.17 (15:40) 0 0 0 0 0
01-09-2020 22.6 (15:00) 10.4 (00:00) 16.5 7.22 (17:40) 3.89 (16:20) 0 0 0 0 0
31-08-2020 23.7 (17:10) 6.6 (00:00) 15.2 4.72 (16:30) 2.78 (16:30) 0 0 0 0 0
30-08-2020 16.6 (15:30) 10.2 (00:00) 13.4 9.17 (12:50) 4.44 (12:50) 17.6 12.6 3 2 0
29-08-2020 18 (15:40) 11.7 (00:00) 14.8 13.33 (18:10) 7.22 (18:10) 21.6 0.2 6 8.6 6.8
28-08-2020 20.4 (00:00) 14.4 (00:00) 17.4 7.78 (03:40) 3.89 (05:20) 9.6 2.6 4.2 2.8 0

Gráficas

Temp. máximas Temp. mínimas Temp. medias Precipitaciones Rachas de viento máximas Velocidades máximas media en intervalos de 10 minutos

Datos horarios

Fecha y hora oficial Temperatura (ºC) Velocidad del viento (km/h) Dirección del viento Racha (km/h) Dirección de racha Precipitación (mm) Presión (hPa) Tendencia (hPa) Humedad (%)
2020-09-26 23:00:00 15.9 26 Noroeste 44 Noroeste 14.8 -- -- 96
2020-09-26 22:00:00 16.3 22 Noroeste 58 Oeste 2.4 -- -- 92
2020-09-26 21:00:00 16.7 13 Noroeste 39 Noroeste 0.2 -- -- 90
2020-09-26 20:00:00 17.8 17 Noroeste 42 Noroeste 0 -- -- 79
2020-09-26 19:00:00 14.8 4 Sudeste 13 Sudeste 0.2 -- -- 96
2020-09-26 18:00:00 14.7 6 Sudeste 15 Sudeste 1.2 -- -- 94
2020-09-26 17:00:00 14.9 8 Sudeste 18 Sudeste 0.2 -- -- 92
2020-09-26 16:00:00 14.8 4 Sudeste 24 Sudeste 1 -- -- 90
2020-09-26 15:00:00 14.2 11 Sudeste 16 Sudeste 1 -- -- 91
2020-09-26 14:00:00 15.2 6 Oeste 12 Noroeste 0.2 -- -- 83
2020-09-26 13:00:00 14.7 5 Este 19 Sudeste 0 -- -- 89
2020-09-26 12:00:00 12.9 8 Sudeste 14 Sudeste 1.2 -- -- 97
2020-09-26 11:00:00 12.1 5 Este 8 Sudeste 0.6 -- -- 97
2020-09-26 10:00:00 11.7 3 Este 8 Este 0.8 -- -- 98
2020-09-26 09:00:00 11.2 3 Sudeste 9 Oeste 0.6 -- -- 98
2020-09-26 08:00:00 11 4 Nordeste 13 Nordeste 0.8 -- -- 97
2020-09-26 07:00:00 10.8 2 Sudeste 8 Sudeste 0.2 -- -- 97
2020-09-26 06:00:00 10.8 3 Este 13 Noroeste 1.4 -- -- 96
2020-09-26 05:00:00 10.8 7 Noroeste 15 Noroeste 1.2 -- -- 95
2020-09-26 04:00:00 10.8 7 Noroeste 21 Noroeste 3.4 -- -- 96
2020-09-26 03:00:00 11.1 3 Sudoeste 14 Norte 2.6 -- -- 94
2020-09-26 02:00:00 11.3 5 Noroeste 12 Oeste 2.4 -- -- 93
2020-09-26 01:00:00 11.3 3 Nordeste 21 Noroeste 2.8 -- -- 94
2020-09-26 00:00:00 11.4 8 Norte 20 Noroeste 0.8 -- -- 94
2020-09-25 23:00:00 11.5 8 Noroeste 27 Noroeste 5.2 -- -- 92
2020-09-25 22:00:00 11.6 6 Oeste 15 Noroeste 2 -- -- 90
2020-09-25 21:00:00 12.2 8 Noroeste 32 Noroeste 0.4 -- -- 82
2020-09-25 20:00:00 12.2 11 Noroeste 26 Noroeste 0.6 -- -- 88
2020-09-25 19:00:00 12.7 18 Noroeste 45 Oeste 0.4 -- -- 80
2020-09-25 18:00:00 12.5 11 Noroeste 42 Norte 0.6 -- -- 86
2020-09-25 17:00:00 13 18 Noroeste 34 Norte 1 -- -- 83
2020-09-25 16:00:00 13.8 13 Noroeste 40 Oeste 1 -- -- 78
2020-09-25 15:00:00 12.9 12 Noroeste 36 Oeste 0.4 -- -- 86
2020-09-25 14:00:00 12.7 11 Noroeste 40 Noroeste 4.8 -- -- 89
2020-09-25 13:00:00 11.5 15 Noroeste 47 Noroeste 3.4 -- -- 90
2020-09-25 12:00:00 12.5 14 Noroeste 44 Oeste 0.6 -- -- 82
2020-09-25 11:00:00 11.6 13 Noroeste 42 Noroeste 1.4 -- -- 81
2020-09-25 10:00:00 11.6 15 Noroeste 30 Noroeste 0.2 -- -- 79
2020-09-25 09:00:00 10.8 10 Noroeste 45 Noroeste 1.6 -- -- 83
2020-09-25 08:00:00 11.9 17 Oeste 47 Oeste 0 -- -- 71
2020-09-25 07:00:00 11.7 13 Oeste 37 Oeste 0.6 -- -- 72
2020-09-25 06:00:00 12.4 17 Oeste 39 Oeste 0.2 -- -- 64
2020-09-25 05:00:00 11.7 12 Noroeste 43 Oeste 0 -- -- 71
2020-09-25 04:00:00 11.3 10 Oeste 46 Oeste 1.2 -- -- 80
2020-09-25 03:00:00 13.2 15 Oeste 53 Oeste 0 -- -- 67
2020-09-25 02:00:00 12.4 7 Noroeste 34 Oeste 0 -- -- 81
2020-09-25 01:00:00 13.2 10 Noroeste 40 Oeste 0 -- -- 72
2020-09-25 00:00:00 12.7 15 Noroeste 46 Noroeste 0.4 -- -- 77
2020-09-24 23:00:00 13.5 17 Noroeste 52 Noroeste 0.2 -- -- 83
2020-09-24 22:00:00 14.3 22 Noroeste 50 Noroeste 0.2 -- -- 84
2020-09-24 21:00:00 15.5 16 Noroeste 35 Noroeste 0.2 -- -- 82
2020-09-24 20:00:00 15.8 4 Oeste 26 Noroeste 2 -- -- 81
2020-09-24 19:00:00 17.5 3 Sur 16 Noroeste 0.4 -- -- 78
2020-09-24 18:00:00 17.9 7 Noroeste 36 Noroeste 0 -- -- 72
2020-09-24 17:00:00 20 8 Noroeste 20 Norte 0 -- -- 60
2020-09-24 16:00:00 20.2 14 Norte 21 Norte 0 -- -- 61
2020-09-24 15:00:00 19.9 11 Norte 19 Norte 0 -- -- 64
2020-09-24 14:00:00 19.4 3 Este 16 Nordeste 0 -- -- 68
2020-09-24 13:00:00 18.4 9 Norte 16 Norte 0 -- -- 73
2020-09-24 12:00:00 17.5 3 Norte 8 Sudeste 0 -- -- 74
2020-09-24 11:00:00 16.1 5 Sudeste 11 Sudeste 0 -- -- 85
2020-09-24 10:00:00 15.2 2 Sur 5 Sudeste 0 -- -- 94
2020-09-24 09:00:00 14.7 3 Sudeste 9 Sudeste 0 -- -- 94
2020-09-24 08:00:00 14.7 0 Calma 7 Noroeste 0.2 -- -- 95
2020-09-24 07:00:00 14.9 2 Oeste 10 Noroeste 0 -- -- 91
2020-09-24 06:00:00 15.4 4 Noroeste 12 Noroeste 1 -- -- 96
2020-09-24 05:00:00 16.2 0 Calma 3 Sur 0 -- -- 97
2020-09-24 04:00:00 16.2 0 Calma 4 Norte 0 -- -- 96
2020-09-24 03:00:00 16.4 0 Calma 8 Este 0.2 -- -- 96
2020-09-24 02:00:00 16.5 3 Sudeste 8 Sudeste 0 -- -- 95
2020-09-24 01:00:00 16.7 0 Calma 5 Este 0 -- -- 96
2020-09-24 00:00:00 16.8 3 Sudeste 8 Noroeste 0.4 -- -- 96
2020-09-23 23:00:00 17 3 Nordeste 6 Este 0.8 -- -- 96
2020-09-23 22:00:00 17 0 Calma 5 Sudeste 0.4 -- -- 95
2020-09-23 21:00:00 17.4 0 Calma 4 Sudoeste 0.2 -- -- 94
2020-09-23 20:00:00 17.8 0 Calma 7 Sudeste 0 -- -- 92
2020-09-23 19:00:00 18.3 2 Sudeste 10 Nordeste 0 -- -- 88
2020-09-23 18:00:00 18.6 5 Norte 15 Noroeste 0 -- -- 85
2020-09-23 17:00:00 19.9 4 Norte 17 Norte 0 -- -- 77
2020-09-23 16:00:00 20 6 Norte 17 Noroeste 0 -- -- 76
2020-09-23 15:00:00 20.7 8 Norte 20 Norte 0 -- -- 73
2020-09-23 14:00:00 21.9 8 Norte 23 Noroeste 0 -- -- 70
2020-09-23 13:00:00 21.6 9 Norte 20 Norte 0 -- -- 63
2020-09-23 12:00:00 22.9 15 Este 24 Este 0 -- -- 62
2020-09-23 11:00:00 20.8 5 Sudeste 33 Sudeste 0 -- -- 68
2020-09-23 10:00:00 19.9 14 Este 28 Sudoeste 0 -- -- 69
2020-09-23 09:00:00 19.5 9 Sudoeste 26 Este 0 -- -- 68
2020-09-23 08:00:00 17.8 8 Sudeste 23 Este 0 -- -- 74
2020-09-23 07:00:00 14.6 6 Noroeste 10 Noroeste 0.2 -- -- 99
2020-09-23 06:00:00 14.6 0 Calma -- -- 0.2 -- -- 98
2020-09-23 05:00:00 14.6 0 Calma 0 Calma 0 -- -- 97
2020-09-23 04:00:00 14.8 0 Calma 3 Sudeste 0 -- -- 96
2020-09-23 03:00:00 14.9 0 Calma 4 Sudeste 0 -- -- 95
2020-09-23 02:00:00 15.4 0 Calma 4 Norte 0 -- -- 95
2020-09-23 01:00:00 16.3 0 Calma 4 Norte 0 -- -- 94
2020-09-23 00:00:00 17.5 0 Calma 4 Este 0 -- -- 93
2020-09-22 23:00:00 18 0 Calma 7 Oeste 0 -- -- 91
2020-09-22 22:00:00 18.1 0 Calma 4 Este 0 -- -- 90
2020-09-22 21:00:00 18.5 0 Calma 6 Oeste 0 -- -- 88
2020-09-22 20:00:00 18.9 4 Noroeste 8 Noroeste 0 -- -- 86
2020-09-22 19:00:00 19.4 3 Noroeste 15 Noroeste 0 -- -- 81
2020-09-22 18:00:00 19.9 7 Noroeste 18 Norte 0 -- -- 81
2020-09-22 17:00:00 20.2 10 Norte 23 Norte 0 -- -- 78
2020-09-22 16:00:00 21.2 12 Norte 22 Norte 0 -- -- 75
2020-09-22 15:00:00 21.3 14 Norte 24 Norte 0 -- -- 72
2020-09-22 14:00:00 22.8 6 Nordeste 14 Nordeste 0 -- -- 65
2020-09-22 13:00:00 21.5 6 Nordeste 14 Nordeste 0 -- -- 69
2020-09-22 12:00:00 19.7 4 Nordeste 7 Nordeste 0 -- -- 75
2020-09-22 11:00:00 16 4 Noroeste 7 Norte 0 -- -- 99
2020-09-22 10:00:00 13.8 0 Calma 4 Este 0 -- -- 100
2020-09-22 09:00:00 12.6 0 Calma 2 Sudeste 0 -- -- 99
2020-09-22 08:00:00 12.6 3 Noroeste 5 Noroeste 0 -- -- 99
2020-09-22 07:00:00 13.1 0 Calma 2 Oeste 0 -- -- 99
2020-09-22 06:00:00 13.7 0 Calma 4 Oeste 0 -- -- 99
2020-09-22 05:00:00 13.8 0 Calma 3 Oeste 0 -- -- 98
2020-09-22 04:00:00 14.4 0 Calma 4 Noroeste 0 -- -- 98
2020-09-22 03:00:00 14.8 2 Noroeste 4 Noroeste 0 -- -- 96
2020-09-22 02:00:00 14.8 0 Calma 4 Sudoeste 0 -- -- 95
2020-09-22 01:00:00 15.6 0 Calma 4 Noroeste 0 -- -- 95
2020-09-22 00:00:00 16.6 0 Calma 4 Nordeste 0 -- -- 92
2020-09-21 23:00:00 17.7 0 Calma 4 Oeste 0 -- -- 91
2020-09-21 22:00:00 18.1 0 Calma 4 Oeste 0 -- -- 88
2020-09-21 21:00:00 18.6 0 Calma 7 Nordeste 0 -- -- 86
2020-09-21 20:00:00 19.1 5 Norte 10 Norte 0 -- -- 83
2020-09-21 19:00:00 19.7 8 Nordeste 19 Nordeste 0 -- -- 79
2020-09-21 18:00:00 20.4 7 Norte 16 Noroeste 0 -- -- 76
2020-09-21 17:00:00 20.9 10 Norte 22 Norte 0 -- -- 72
2020-09-21 16:00:00 21 12 Norte 21 Nordeste 0 -- -- 71
2020-09-21 15:00:00 22 9 Norte 16 Norte 0 -- -- 67
2020-09-21 14:00:00 21.2 3 Este 9 Sudeste 0 -- -- 72
2020-09-21 13:00:00 20.2 4 Nordeste 8 Este 0 -- -- 79
2020-09-21 12:00:00 18.8 2 Este 5 Este 0 -- -- 87
2020-09-21 11:00:00 15.3 0 Calma 3 Nordeste 0 -- -- 98
2020-09-21 10:00:00 14.6 0 Calma 5 Noroeste 0 -- -- 100
2020-09-21 09:00:00 13.8 0 Calma 4 Norte 0 -- -- 100
2020-09-21 08:00:00 13.2 0 Calma 3 Este 0 -- -- 99
2020-09-21 07:00:00 13.1 2 Oeste 5 Noroeste 0 -- -- 99
2020-09-21 06:00:00 13.2 0 Calma -- -- 0 -- -- 98
2020-09-21 05:00:00 13.5 0 Calma 2 Sudoeste 0 -- -- 98
2020-09-21 04:00:00 13.6 0 Calma 5 Oeste 0 -- -- 98
2020-09-21 03:00:00 14.2 3 Noroeste 5 Oeste 0 -- -- 97
2020-09-21 02:00:00 15.2 0 Calma 5 Norte 0 -- -- 95
2020-09-21 01:00:00 16.3 0 Calma 4 Noroeste 0 -- -- 95
2020-09-21 00:00:00 16.7 0 Calma 2 Sudoeste 0 -- -- 93
2020-09-20 23:00:00 16.8 0 Calma 4 Norte 0 -- -- 92
2020-09-20 22:00:00 17.8 0 Calma 4 Sudoeste 0 -- -- 90
2020-09-20 21:00:00 18.7 0 Calma 3 Oeste 0 -- -- 87
2020-09-20 20:00:00 19.2 0 Calma 12 Norte 0 -- -- 83
2020-09-20 19:00:00 19.8 7 Nordeste 18 Norte 0 -- -- 82
2020-09-20 18:00:00 20.2 7 Nordeste 19 Noroeste 0 -- -- 80
2020-09-20 17:00:00 20.8 12 Nordeste 22 Nordeste 0 -- -- 76
2020-09-20 16:00:00 21.9 7 Norte 16 Nordeste 0 -- -- 70
2020-09-20 15:00:00 22.1 7 Norte 13 Noroeste 0 -- -- 69
2020-09-20 14:00:00 22.1 5 Norte 14 Norte 0 -- -- 67
2020-09-20 13:00:00 21.8 6 Norte 13 Noroeste 0 -- -- 65
2020-09-20 12:00:00 20.9 3 Nordeste 7 Nordeste 0 -- -- 69
2020-09-20 11:00:00 17.9 2 Este 5 Este 0 -- -- 87
2020-09-20 10:00:00 14.2 0 Calma 4 Sudeste 0 -- -- 100
2020-09-20 09:00:00 11.2 0 Calma 3 Norte 0 -- -- 100
2020-09-20 08:00:00 11 2 Noroeste 5 Oeste 0 -- -- 99
2020-09-20 07:00:00 11.3 2 Sudoeste 4 Noroeste 0 -- -- 97
2020-09-20 06:00:00 11.7 0 Calma 3 Sudoeste 0 -- -- 97
2020-09-20 05:00:00 12.4 0 Calma 4 Norte 0 -- -- 97
2020-09-20 04:00:00 12.7 0 Calma 5 Sudoeste 0 -- -- 97
2020-09-20 03:00:00 13.3 0 Calma 4 Sudoeste 0 -- -- 96
2020-09-20 02:00:00 14 0 Calma 5 Noroeste 0 -- -- 95
2020-09-20 01:00:00 14.3 2 Nordeste 8 Norte 0 -- -- 91
2020-09-20 00:00:00 14.8 3 Sudoeste 6 Sudoeste 0 -- -- 91
2020-09-19 23:00:00 16.6 3 Sur 8 Norte 0 -- -- 90
2020-09-19 22:00:00 17.9 2 Sur 9 Este 0 -- -- 88
2020-09-19 21:00:00 18.5 5 Noroeste 9 Noroeste 0 -- -- 84
2020-09-19 20:00:00 19.6 0 Calma 5 Noroeste 0 -- -- 80
2020-09-19 19:00:00 20.3 0 Calma 7 Este 0 -- -- 76
2020-09-19 18:00:00 19.9 3 Este 6 Este 0 -- -- 80
2020-09-19 17:00:00 19.4 3 Nordeste 6 Este 0.8 -- -- 83
2020-09-19 16:00:00 20.2 4 Nordeste 20 Oeste 0 -- -- 73
2020-09-19 15:00:00 19.4 6 Noroeste 23 Oeste 0 -- -- 72
2020-09-19 14:00:00 19.8 13 Noroeste 33 Noroeste 0 -- -- 71
2020-09-19 13:00:00 22 6 Norte 17 Noroeste 0 -- -- 63
2020-09-19 12:00:00 22.2 8 Noroeste 19 Sudeste 0 -- -- 58
2020-09-19 11:00:00 21.2 6 Sur 28 Oeste 0 -- -- 65
2020-09-19 10:00:00 20.4 7 Sudoeste 18 Sur 0 -- -- 65
2020-09-19 09:00:00 16.8 3 Sur 9 Sudeste 0 -- -- 80
2020-09-19 08:00:00 16.5 5 Sudoeste 12 Sudeste 0 -- -- 76
2020-09-19 07:00:00 18.2 7 Sudeste 22 Sudoeste 0 -- -- 70
2020-09-19 06:00:00 18.7 8 Sur 31 Sudoeste 0 -- -- 66
2020-09-19 05:00:00 18.3 9 Sur 28 Sur 0 -- -- 67
2020-09-19 04:00:00 18.3 11 Sur 35 Sur 0 -- -- 69
2020-09-19 03:00:00 17.5 9 Sur 22 Sur 0 -- -- 75
2020-09-19 02:00:00 17 3 Sur 15 Este 0 -- -- 86
2020-09-19 01:00:00 17.5 3 Sudoeste 15 Este 0.4 -- -- 86
2020-09-19 00:00:00 18.3 5 Sudeste 27 Sudeste 1.2 -- -- 80
2020-09-18 23:00:00 18.9 4 Nordeste 25 Sudeste 0.4 -- -- 77
2020-09-18 22:00:00 18.8 6 Nordeste 11 Nordeste 0 -- -- 81
2020-09-18 21:00:00 19.9 2 Nordeste 5 Norte 0 -- -- 77
2020-09-18 20:00:00 22.8 2 Sudoeste 21 Norte 0 -- -- 64
2020-09-18 19:00:00 26.5 3 Noroeste 13 Sur 0 -- -- 50
2020-09-18 18:00:00 27.2 4 Sudoeste 22 Sur 0 -- -- 43
2020-09-18 17:00:00 27 11 Sur 38 Sur 0 -- -- 41
2020-09-18 16:00:00 26.4 16 Sur 35 Sudoeste 0 -- -- 44
2020-09-18 15:00:00 25.8 14 Sur 30 Sur 0 -- -- 46
2020-09-18 14:00:00 22.6 11 Sur 36 Sur 0 -- -- 56
2020-09-18 13:00:00 22.8 19 Sur 39 Sur 0 -- -- 54
2020-09-18 12:00:00 22.1 15 Sur 39 Sur 0.2 -- -- 62
2020-09-18 11:00:00 22.2 17 Sur 33 Sur 0 -- -- 66
2020-09-18 10:00:00 19.6 8 Sur 21 Sudeste 1 -- -- 78
2020-09-18 09:00:00 19.1 14 Sur 31 Sur 1.2 -- -- 81
2020-09-18 08:00:00 20.4 10 Sudeste 28 Sudeste 0 -- -- 70
2020-09-18 07:00:00 20 5 Nordeste 9 Norte 0 -- -- 71
2020-09-18 06:00:00 20.9 5 Norte 22 Sudoeste 0 -- -- 64
2020-09-18 05:00:00 21.4 8 Sur 34 Sudoeste 0 -- -- 60
2020-09-18 04:00:00 20.6 6 Noroeste 45 Sudeste 0.2 -- -- 69
2020-09-18 03:00:00 23.5 13 Sur 46 Sur 0 -- -- 59
2020-09-18 02:00:00 25.9 14 Sur 33 Sudoeste 0 -- -- 52
2020-09-18 01:00:00 25.5 11 Sur 26 Sur 0 -- -- 53
2020-09-18 00:00:00 22.2 2 Norte 12 Norte 0 -- -- 67
2020-09-17 23:00:00 23.1 10 Sudeste 37 Sudeste 0 -- -- 67
2020-09-17 22:00:00 20.8 0 Calma 5 Oeste 0 -- -- 84
2020-09-17 21:00:00 22.6 3 Sur 5 Sudeste 0 -- -- 79
2020-09-17 20:00:00 25.5 3 Oeste 8 Noroeste 0 -- -- 65
2020-09-17 19:00:00 27.7 3 Norte 8 Norte 0 -- -- 62
2020-09-17 18:00:00 28 2 Sudeste 15 Sur 0 -- -- 66
2020-09-17 17:00:00 27.5 4 Sur 12 Sudoeste 0 -- -- 54
2020-09-17 16:00:00 28.2 3 Sudoeste 21 Este 0 -- -- 60
2020-09-17 15:00:00 29 5 Este 18 Este 0 -- -- 50
2020-09-17 14:00:00 28.2 9 Sudeste 20 Sudeste 0 -- -- 54
2020-09-17 13:00:00 23.1 2 Nordeste 8 Nordeste 0 -- -- 81
2020-09-17 12:00:00 20.7 3 Noroeste 9 Este 0 -- -- 91
2020-09-17 11:00:00 19.8 2 Sur 6 Sudoeste 0.2 -- -- 97
2020-09-17 10:00:00 19.1 0 Calma 6 Sudeste 0 -- -- 97
2020-09-17 09:00:00 18.8 3 Sudoeste 6 Nordeste 0 -- -- 98
2020-09-17 08:00:00 18.9 3 Nordeste 6 Norte 0 -- -- 98
2020-09-17 07:00:00 19.3 0 Calma 6 Oeste 0 -- -- 98
2020-09-17 06:00:00 19.4 0 Calma 6 Oeste 0 -- -- 98
2020-09-17 05:00:00 19.6 4 Noroeste 6 Noroeste 0.6 -- -- 98
2020-09-17 04:00:00 19.6 0 Calma 3 Sur 0 -- -- 96
2020-09-17 03:00:00 19.5 0 Calma 5 Noroeste 0 -- -- 98
2020-09-17 02:00:00 19.6 3 Noroeste 6 Oeste 0 -- -- 96
2020-09-17 01:00:00 20 0 Calma 3 Sudoeste 0 -- -- 96
2020-09-17 00:00:00 20.4 0 Calma 5 Noroeste 0 -- -- 94
2020-09-16 23:00:00 21.3 0 Calma 8 Norte 0 -- -- 92
2020-09-16 22:00:00 21.5 3 Norte 5 Norte 0 -- -- 93
2020-09-16 21:00:00 21.6 0 Calma 4 Noroeste 0 -- -- 90
2020-09-16 20:00:00 22.4 3 Noroeste 15 Oeste 0 -- -- 88
2020-09-16 19:00:00 24 8 Noroeste 17 Noroeste 0 -- -- 82
2020-09-16 18:00:00 25.5 9 Noroeste 17 Noroeste 0 -- -- 76
2020-09-16 17:00:00 26.1 10 Norte 16 Nordeste 0 -- -- 71
2020-09-16 16:00:00 26.8 6 Norte 19 Norte 0 -- -- 69
2020-09-16 15:00:00 27 10 Norte 17 Norte 0 -- -- 66
2020-09-16 14:00:00 26.3 8 Nordeste 15 Norte 0 -- -- 68
2020-09-16 13:00:00 25 6 Norte 10 Norte 0 -- -- 73
2020-09-16 12:00:00 22.6 2 Norte 5 Noroeste 0 -- -- 77
2020-09-16 11:00:00 18.7 0 Calma 5 Norte 0 -- -- 93
2020-09-16 10:00:00 16.1 0 Calma 3 Noroeste 0.2 -- -- 99
2020-09-16 09:00:00 15.3 0 Calma 3 Oeste 0 -- -- 99
2020-09-16 08:00:00 15.4 0 Calma 2 Este 0 -- -- 98
2020-09-16 07:00:00 15.9 0 Calma 2 Oeste 0 -- -- 98
2020-09-16 06:00:00 16.1 2 Sudeste 4 Este 0 -- -- 98
2020-09-16 05:00:00 16.5 0 Calma 0 Calma 0 -- -- 98
2020-09-16 04:00:00 16.8 0 Calma -- -- 0 -- -- 98
2020-09-16 03:00:00 17 0 Calma -- -- 0 -- -- 98
2020-09-16 02:00:00 16.9 0 Calma 0 Calma 0 -- -- 97
2020-09-16 01:00:00 17.9 0 Calma 0 Calma 0 -- -- 95
2020-09-16 00:00:00 18.5 0 Calma 3 Oeste 0 -- -- 93
2020-09-15 23:00:00 19.6 0 Calma 4 Norte 0 -- -- 91
2020-09-15 22:00:00 20.6 2 Noroeste 4 Oeste 0 -- -- 89
2020-09-15 21:00:00 21.5 2 Nordeste 10 Norte 0 -- -- 85
2020-09-15 20:00:00 22.2 3 Nordeste 7 Nordeste 0 -- -- 82
2020-09-15 19:00:00 22.9 3 Norte 15 Noroeste 0 -- -- 79
2020-09-15 18:00:00 23.6 9 Noroeste 18 Noroeste 0 -- -- 76
2020-09-15 17:00:00 24.6 8 Norte 19 Norte 0 -- -- 74
2020-09-15 16:00:00 25.1 14 Norte 23 Norte 0 -- -- 74
2020-09-15 15:00:00 25.6 14 Nordeste 27 Norte 0 -- -- 70
2020-09-15 14:00:00 27.3 9 Norte 25 Sudeste 0 -- -- 60
2020-09-15 13:00:00 27.9 6 Sudoeste 26 Sudoeste 0 -- -- 49
2020-09-15 12:00:00 26.3 11 Sudoeste 26 Sudoeste 0 -- -- 55
2020-09-15 11:00:00 25.2 5 Sur 20 Oeste 0 -- -- 54
2020-09-15 10:00:00 22.8 9 Este 19 Este 0 -- -- 62
2020-09-15 09:00:00 18.8 8 Este 14 Este 0 -- -- 81
2020-09-15 08:00:00 16.6 3 Norte 6 Noroeste 0 -- -- 96
2020-09-15 07:00:00 16.9 2 Noroeste 12 Sudeste 0 -- -- 95
2020-09-15 06:00:00 17.2 4 Oeste 9 Sudoeste 0 -- -- 94
2020-09-15 05:00:00 18 4 Noroeste 11 Oeste 0 -- -- 90
2020-09-15 04:00:00 19 5 Sudoeste 27 Sudeste 0.8 -- -- 83
2020-09-15 03:00:00 18.6 9 Nordeste 23 Sudoeste 3 -- -- 89
2020-09-15 02:00:00 17.9 4 Este 13 Sudoeste 2.8 -- -- 94
2020-09-15 01:00:00 18.4 7 Este 21 Sudoeste 0 -- -- 89
2020-09-15 00:00:00 18.6 8 Noroeste 12 Noroeste 0.2 -- -- 87
2020-09-14 23:00:00 18.8 4 Sudeste 15 Oeste 0 -- -- 84
2020-09-14 22:00:00 19.4 0 Calma 5 Nordeste 0 -- -- 78
2020-09-14 21:00:00 21.4 2 Sur 8 Noroeste 0 -- -- 72
2020-09-14 20:00:00 23.7 3 Oeste 7 Oeste 0 -- -- 66
2020-09-14 19:00:00 24.5 0 Calma 5 Sudoeste 0 -- -- 61
2020-09-14 18:00:00 24 3 Nordeste 18 Oeste 0 -- -- 57
2020-09-14 17:00:00 23.8 8 Sudoeste 17 Sudoeste 0 -- -- 62
2020-09-14 16:00:00 25.8 5 Norte 18 Norte 0 -- -- 50
2020-09-14 15:00:00 26.8 9 Norte 29 Norte 0 -- -- 49
2020-09-14 14:00:00 30.3 13 Nordeste 27 Norte 0 -- -- 43
2020-09-14 13:00:00 30.7 9 Nordeste 23 Este 0 -- -- 38
2020-09-14 12:00:00 28.2 11 Nordeste 23 Sudeste 0 -- -- 42
2020-09-14 11:00:00 26.8 12 Sudeste 32 Sudeste 0 -- -- 42
2020-09-14 10:00:00 26.1 9 Sur 22 Sur 0 -- -- 41
2020-09-14 09:00:00 26.4 8 Sur 23 Sudoeste 0 -- -- 39
2020-09-14 08:00:00 25.7 8 Nordeste 27 Sudoeste 0 -- -- 38
2020-09-14 07:00:00 26.4 10 Sudeste 34 Sudeste 0 -- -- 36
2020-09-14 06:00:00 27.1 9 Sur 40 Sudeste 0 -- -- 35
2020-09-14 05:00:00 27.1 12 Sur 33 Sudeste 0 -- -- 35
2020-09-14 04:00:00 24.8 10 Sur 30 Sur 0 -- -- 42
2020-09-14 03:00:00 17.2 5 Norte 11 Norte 0 -- -- 91
2020-09-14 02:00:00 17.1 3 Nordeste 9 Sudeste 0 -- -- 91
2020-09-14 01:00:00 17.9 3 Noroeste 6 Noroeste 0 -- -- 88
2020-09-14 00:00:00 18.9 0 Calma 4 Sur 0 -- -- 84
2020-09-13 23:00:00 20.2 0 Calma 6 Noroeste 0 -- -- 77
2020-09-13 22:00:00 21.4 0 Calma 5 Norte 0 -- -- 71
2020-09-13 21:00:00 24.1 4 Noroeste 7 Oeste 0 -- -- 61
2020-09-13 20:00:00 28.6 5 Oeste 8 Oeste 0 -- -- 48
2020-09-13 19:00:00 31 4 Norte 17 Norte 0 -- -- 48
2020-09-13 18:00:00 31.8 9 Norte 19 Norte 0 -- -- 45
2020-09-13 17:00:00 32.3 13 Norte 22 Norte 0 -- -- 38
2020-09-13 16:00:00 33 13 Norte 21 Norte 0 -- -- 34
2020-09-13 15:00:00 33.2 3 Sudeste 19 Sudoeste 0 -- -- 33
2020-09-13 14:00:00 31.9 4 Sur 19 Sudeste 0 -- -- 37
2020-09-13 13:00:00 29.6 4 Este 18 Sudoeste 0 -- -- 39
2020-09-13 12:00:00 24.6 7 Este 16 Nordeste 0 -- -- 67
2020-09-13 11:00:00 18.2 3 Este 6 Sudeste 0 -- -- 88
2020-09-13 10:00:00 13.9 0 Calma 4 Sudeste 0 -- -- 98
2020-09-13 09:00:00 11.2 0 Calma 2 Sur 0.2 -- -- 100
2020-09-13 08:00:00 10.8 0 Calma 5 Noroeste 0 -- -- 98
2020-09-13 07:00:00 11.4 0 Calma 3 Sudoeste 0 -- -- 98
2020-09-13 06:00:00 12.3 0 Calma 3 Noroeste 0 -- -- 98
2020-09-13 05:00:00 13.2 0 Calma 3 Noroeste 0 -- -- 98
2020-09-13 04:00:00 14 0 Calma 4 Noroeste 0 -- -- 98
2020-09-13 03:00:00 14.7 0 Calma 5 Sudoeste 0 -- -- 97
2020-09-13 02:00:00 15.1 0 Calma 5 Este 0 -- -- 96
2020-09-13 01:00:00 15.9 0 Calma 6 Noroeste 0 -- -- 95
2020-09-13 00:00:00 16.9 2 Noroeste 6 Sudeste 0 -- -- 94
2020-09-12 23:00:00 17.6 3 Sudoeste 4 Sudoeste 0 -- -- 91
2020-09-12 22:00:00 19 0 Calma 3 Nordeste 0 -- -- 89
2020-09-12 21:00:00 20.5 2 Norte 10 Norte 0 -- -- 83
2020-09-12 20:00:00 22.7 5 Norte 12 Noroeste 0 -- -- 74
2020-09-12 19:00:00 24.4 6 Noroeste 17 Noroeste 0 -- -- 68
2020-09-12 18:00:00 25.7 7 Noroeste 15 Norte 0 -- -- 67
2020-09-12 17:00:00 26.6 9 Norte 16 Nordeste 0 -- -- 67
2020-09-12 16:00:00 26.2 11 Norte 22 Nordeste 0 -- -- 68
2020-09-12 15:00:00 26 12 Norte 20 Nordeste 0 -- -- 68
2020-09-12 14:00:00 25 5 Norte 10 Norte 0 -- -- 68
2020-09-12 13:00:00 23.2 4 Este 9 Norte 0 -- -- 73
2020-09-12 12:00:00 20.2 3 Oeste 6 Oeste 0 -- -- 90
2020-09-12 11:00:00 17.2 0 Calma 6 Norte 0 -- -- 100
2020-09-12 10:00:00 15.6 0 Calma 4 Nordeste 0 -- -- 100
2020-09-12 09:00:00 14.6 0 Calma 3 Nordeste 0 -- -- 100
2020-09-12 08:00:00 14.1 0 Calma 3 Este 0 -- -- 99
2020-09-12 07:00:00 14.2 0 Calma 4 Oeste 0 -- -- 99
2020-09-12 06:00:00 14.1 3 Sudeste 4 Sudeste 0 -- -- 99
2020-09-12 05:00:00 14.5 0 Calma 4 Norte 0 -- -- 99
2020-09-12 04:00:00 14.8 0 Calma 4 Norte 0 -- -- 99
2020-09-12 03:00:00 15.1 0 Calma 3 Sudeste 0 -- -- 98
2020-09-12 02:00:00 15.6 2 Noroeste 3 Noroeste 0 -- -- 96
2020-09-12 01:00:00 16.4 0 Calma 3 Noroeste 0 -- -- 94
2020-09-12 00:00:00 17 0 Calma 3 Sudoeste 0 -- -- 94
2020-09-11 23:00:00 18.1 0 Calma 4 Nordeste 0 -- -- 89
2020-09-11 22:00:00 19.5 0 Calma 6 Noroeste 0 -- -- 85
2020-09-11 21:00:00 20.8 4 Norte 15 Noroeste 0 -- -- 81
2020-09-11 20:00:00 23 10 Noroeste 15 Noroeste 0 -- -- 72
2020-09-11 19:00:00 25 8 Noroeste 13 Noroeste 0 -- -- 70
2020-09-11 18:00:00 26 8 Norte 17 Norte 0 -- -- 70
2020-09-11 17:00:00 26.3 13 Norte 23 Norte 0 -- -- 65
2020-09-11 16:00:00 27.1 10 Norte 20 Norte 0 -- -- 60
2020-09-11 15:00:00 26.7 12 Norte 19 Norte 0 -- -- 61
2020-09-11 14:00:00 26.3 9 Norte 17 Norte 0 -- -- 62
2020-09-11 13:00:00 24.5 5 Norte 10 Norte 0 -- -- 60
2020-09-11 12:00:00 21.9 2 Nordeste 5 Este 0 -- -- 73
2020-09-11 11:00:00 17.8 2 Este 4 Nordeste 0 -- -- 95
2020-09-11 10:00:00 14.6 0 Calma 0 Calma 0 -- -- 100
2020-09-11 09:00:00 13.4 0 Calma -- -- 0 -- -- 99
2020-09-11 08:00:00 -- -- -- -- -- -- -- -- --
2020-09-11 07:00:00 14 0 Calma -- -- 0 -- -- 99
2020-09-11 06:00:00 14.5 0 Calma -- -- 0 -- -- 98
2020-09-11 05:00:00 15.1 0 Calma -- -- 0 -- -- 98
2020-09-11 04:00:00 15.3 0 Calma -- -- 0 -- -- 98
2020-09-11 03:00:00 15.1 0 Calma -- -- 0 -- -- 97
2020-09-11 02:00:00 15.4 0 Calma -- -- 0 -- -- 96
2020-09-11 01:00:00 15.6 0 Calma -- -- 0 -- -- 95
2020-09-11 00:00:00 16.1 0 Calma 0 Calma 0 -- -- 94
2020-09-10 23:00:00 17 0 Calma -- -- 0 -- -- 93
2020-09-10 22:00:00 18 0 Calma 0 Calma 0 -- -- 90
2020-09-10 21:00:00 19.7 0 Calma 13 Norte 0 -- -- 85
2020-09-10 20:00:00 20.9 6 Norte 17 Norte 0 -- -- 80
2020-09-10 19:00:00 21.9 9 Norte 22 Nordeste 0 -- -- 76
2020-09-10 18:00:00 23.9 8 Norte 17 Nordeste 0 -- -- 61
2020-09-10 17:00:00 24.1 10 Norte 25 Nordeste 0 -- -- 60
2020-09-10 16:00:00 24.3 13 Nordeste 22 Norte 0 -- -- 62
2020-09-10 15:00:00 24.5 11 Nordeste 20 Nordeste 0 -- -- 60
2020-09-10 14:00:00 24 10 Nordeste 21 Nordeste 0 -- -- 58
2020-09-10 13:00:00 23 11 Nordeste 21 Norte 0 -- -- 61
2020-09-10 12:00:00 21.5 2 Norte 6 Nordeste 0 -- -- 64
2020-09-10 11:00:00 17.9 0 Calma 0 Calma 0 -- -- 88
2020-09-10 10:00:00 15.1 0 Calma 0 Calma 0 -- -- 100
2020-09-10 09:00:00 13.2 0 Calma -- -- 0 -- -- 99
2020-09-10 08:00:00 12.9 0 Calma -- -- 0 -- -- 98
2020-09-10 07:00:00 13.6 0 Calma -- -- 0 -- -- 98
2020-09-10 06:00:00 14.1 0 Calma -- -- 0 -- -- 98
2020-09-10 05:00:00 14.7 0 Calma -- -- 0 -- -- 98
2020-09-10 04:00:00 14.9 0 Calma -- -- 0 -- -- 97
2020-09-10 03:00:00 15.1 0 Calma -- -- 0 -- -- 96
2020-09-10 02:00:00 15.9 0 Calma -- -- 0 -- -- 96
2020-09-10 01:00:00 16.4 0 Calma 0 Calma 0 -- -- 95
2020-09-10 00:00:00 16.7 0 Calma 0 Calma 0 -- -- 93
2020-09-09 23:00:00 17.4 0 Calma 8 Noroeste 0 -- -- 91
2020-09-09 22:00:00 18.7 4 Noroeste 8 Noroeste 0 -- -- 88
2020-09-09 21:00:00 20.1 4 Noroeste 9 Noroeste 0 -- -- 84
2020-09-09 20:00:00 21.5 5 Noroeste 9 Oeste 0 -- -- 79
2020-09-09 19:00:00 21.9 4 Norte 14 Norte 0 -- -- 77
2020-09-09 18:00:00 22.8 11 Norte 23 Norte 0 -- -- 72
2020-09-09 17:00:00 24 9 Norte 20 Norte 0 -- -- 64
2020-09-09 16:00:00 23.7 12 Norte 22 Norte 0 -- -- 60
2020-09-09 15:00:00 24 15 Nordeste 22 Nordeste 0 -- -- 61
2020-09-09 14:00:00 24.1 8 Norte 17 Nordeste 0 -- -- 57
2020-09-09 13:00:00 23 5 Norte 11 Nordeste 0 -- -- 63
2020-09-09 12:00:00 20.7 3 Norte 9 Norte 0 -- -- 71
2020-09-09 11:00:00 17 3 Nordeste 5 Nordeste 0 -- -- 85
2020-09-09 10:00:00 13 2 Sur 5 Este 0 -- -- 100
2020-09-09 09:00:00 10 3 Noroeste 5 Noroeste 0 -- -- 100
2020-09-09 08:00:00 8.9 0 Calma 5 Norte 0 -- -- 99
2020-09-09 07:00:00 9.4 0 Calma 5 Noroeste 0 -- -- 99
2020-09-09 06:00:00 9.7 2 Oeste 5 Noroeste 0 -- -- 99
2020-09-09 05:00:00 10.3 0 Calma 3 Oeste 0 -- -- 97
2020-09-09 04:00:00 10.7 0 Calma 6 Noroeste 0 -- -- 97
2020-09-09 03:00:00 11.7 0 Calma 3 Sudoeste 0 -- -- 96
2020-09-09 02:00:00 12.1 0 Calma 2 Norte 0 -- -- 94
2020-09-09 01:00:00 12.8 0 Calma 2 Sudoeste 0 -- -- 92
2020-09-09 00:00:00 13.5 0 Calma 4 Norte 0 -- -- 90
2020-09-08 23:00:00 14.4 0 Calma 6 Sudoeste 0 -- -- 88
2020-09-08 22:00:00 16.1 2 Nordeste 6 Noroeste 0 -- -- 80
2020-09-08 21:00:00 18.4 0 Calma 9 Noroeste 0 -- -- 73
2020-09-08 20:00:00 21.2 6 Noroeste 12 Norte 0 -- -- 63
2020-09-08 19:00:00 22.3 7 Norte 14 Norte 0 -- -- 59
2020-09-08 18:00:00 22.7 11 Norte 22 Norte 0 -- -- 55
2020-09-08 17:00:00 22.9 13 Norte 25 Norte 0 -- -- 56
2020-09-08 16:00:00 23 13 Norte 29 Norte 0 -- -- 55
2020-09-08 15:00:00 23 16 Norte 27 Noroeste 0 -- -- 53
2020-09-08 14:00:00 23.3 13 Nordeste 22 Nordeste 0 -- -- 46
2020-09-08 13:00:00 21.9 7 Norte 14 Nordeste 0 -- -- 51
2020-09-08 12:00:00 19.4 4 Norte 7 Norte 0 -- -- 67
2020-09-08 11:00:00 16.2 2 Nordeste 6 Este 0 -- -- 81
2020-09-08 10:00:00 12.1 2 Nordeste 4 Nordeste 0 -- -- 95
2020-09-08 09:00:00 9.1 0 Calma 6 Este 0 -- -- 100
2020-09-08 08:00:00 7.7 0 Calma 5 Sudoeste 0 -- -- 99
2020-09-08 07:00:00 8 3 Noroeste 5 Noroeste 0 -- -- 98
2020-09-08 06:00:00 8.3 0 Calma 4 Nordeste 0 -- -- 97
2020-09-08 05:00:00 8.8 0 Calma 4 Oeste 0 -- -- 97
2020-09-08 04:00:00 9.1 2 Sudoeste 4 Norte 0 -- -- 96
2020-09-08 03:00:00 10 0 Calma 3 Oeste 0 -- -- 95
2020-09-08 02:00:00 10.8 0 Calma 3 Norte 0 -- -- 95
2020-09-08 01:00:00 11.2 0 Calma 3 Sudoeste 0 -- -- 93
2020-09-08 00:00:00 11.6 0 Calma 4 Noroeste 0 -- -- 91
2020-09-07 23:00:00 13 0 Calma 5 Noroeste 0 -- -- 87
2020-09-07 22:00:00 14.2 2 Oeste 7 Norte 0 -- -- 82
2020-09-07 21:00:00 16.4 3 Norte 15 Norte 0 -- -- 73
2020-09-07 20:00:00 18.4 8 Norte 23 Norte 0 -- -- 65
2020-09-07 19:00:00 19.5 13 Nordeste 22 Nordeste 0 -- -- 58
2020-09-07 18:00:00 20.2 13 Nordeste 24 Nordeste 0 -- -- 58
2020-09-07 17:00:00 20.6 15 Nordeste 27 Norte 0 -- -- 54
2020-09-07 16:00:00 20.6 8 Norte 24 Norte 0 -- -- 63
2020-09-07 15:00:00 18.8 12 Norte 26 Nordeste 0 -- -- 72
2020-09-07 14:00:00 19.1 9 Norte 17 Norte 0 -- -- 72
2020-09-07 13:00:00 18.6 7 Nordeste 23 Norte 0.2 -- -- 73
2020-09-07 12:00:00 18.3 4 Norte 10 Este 0 -- -- 77
2020-09-07 11:00:00 16.3 2 Nordeste 7 Nordeste 0 -- -- 89
2020-09-07 10:00:00 15.4 0 Calma 4 Sudeste 0 -- -- 93
2020-09-07 09:00:00 14 0 Calma 7 Este 0 -- -- 98
2020-09-07 08:00:00 13.5 5 Sudoeste 8 Sudoeste 0.4 -- -- 97
2020-09-07 07:00:00 13.4 0 Calma 3 Nordeste 0 -- -- 95
2020-09-07 06:00:00 13.6 2 Norte 3 Norte 0 -- -- 94
2020-09-07 05:00:00 14.3 0 Calma 5 Noroeste 0 -- -- 93
2020-09-07 04:00:00 15.2 3 Oeste 6 Oeste 0 -- -- 85
2020-09-07 03:00:00 15.4 3 Oeste 9 Noroeste 0 -- -- 86
2020-09-07 02:00:00 15.9 5 Noroeste 8 Oeste 0 -- -- 84
2020-09-07 01:00:00 16.1 4 Noroeste 8 Noroeste 0 -- -- 82
2020-09-07 00:00:00 16.1 2 Norte 15 Nordeste 0 -- -- 83
2020-09-06 23:00:00 16.4 3 Norte 8 Noroeste 0 -- -- 82
2020-09-06 22:00:00 16.7 3 Oeste 9 Noroeste 0 -- -- 80
2020-09-06 21:00:00 17.1 5 Norte 20 Norte 0 -- -- 78
2020-09-06 20:00:00 18.1 5 Oeste 22 Noroeste 0 -- -- 77
2020-09-06 19:00:00 18.8 10 Noroeste 25 Oeste 0 -- -- 73
2020-09-06 18:00:00 18.7 9 Norte 21 Noroeste 0 -- -- 70
2020-09-06 17:00:00 19.4 10 Noroeste 17 Noroeste 0 -- -- 69
2020-09-06 16:00:00 18.8 8 Norte 15 Nordeste 0 -- -- 69
2020-09-06 15:00:00 18.6 4 Noroeste 10 Nordeste 0 -- -- 69
2020-09-06 14:00:00 17.9 4 Noroeste 16 Nordeste 0 -- -- 70
2020-09-06 13:00:00 17.4 5 Noroeste 12 Norte 0 -- -- 77
2020-09-06 12:00:00 17.1 6 Norte 10 Norte 0 -- -- 76
2020-09-06 11:00:00 16.2 4 Oeste 8 Norte 0 -- -- 87
2020-09-06 10:00:00 15.7 3 Noroeste 8 Noroeste 0 -- -- 87
2020-09-06 09:00:00 15.6 5 Noroeste 9 Noroeste 0 -- -- 86
2020-09-06 08:00:00 15.7 2 Noroeste 6 Noroeste 0 -- -- 86
2020-09-06 07:00:00 15.7 3 Noroeste 12 Norte 0 -- -- 88
2020-09-06 06:00:00 15.7 5 Norte 13 Norte 0 -- -- 89
2020-09-06 05:00:00 16 8 Norte 15 Norte 0 -- -- 89
2020-09-06 04:00:00 16.5 8 Norte 19 Norte 0 -- -- 87
2020-09-06 03:00:00 16.6 6 Norte 18 Nordeste 0 -- -- 89
2020-09-06 02:00:00 16.4 6 Norte 14 Norte 0 -- -- 93
2020-09-06 01:00:00 16.5 6 Norte 14 Norte 0 -- -- 94
2020-09-06 00:00:00 17.4 7 Norte 10 Nordeste 0 -- -- 88
2020-09-05 23:00:00 17.7 2 Noroeste 8 Noroeste 0 -- -- 85
2020-09-05 22:00:00 17.8 4 Norte 16 Norte 0 -- -- 83
2020-09-05 21:00:00 18 9 Norte 20 Norte 0 -- -- 83
2020-09-05 20:00:00 18.4 8 Norte 13 Noroeste 0 -- -- 88
2020-09-05 19:00:00 18.6 6 Noroeste 13 Norte 0 -- -- 88
2020-09-05 18:00:00 19.3 11 Norte 18 Norte 0 -- -- 84
2020-09-05 17:00:00 19.7 5 Nordeste 14 Norte 0 -- -- 81
2020-09-05 16:00:00 20.3 5 Noroeste 14 Norte 0 -- -- 75
2020-09-05 15:00:00 20.3 6 Norte 15 Nordeste 0 -- -- 78
2020-09-05 14:00:00 20.2 5 Nordeste 13 Norte 0 -- -- 82
2020-09-05 13:00:00 19.1 7 Norte 18 Norte 0 -- -- 88
2020-09-05 12:00:00 19.6 5 Norte 12 Norte 0 -- -- 85
2020-09-05 11:00:00 19.5 0 Calma 12 Norte 0 -- -- 87
2020-09-05 10:00:00 18.6 6 Norte 13 Norte 0.4 -- -- 93
2020-09-05 09:00:00 18.3 3 Oeste 7 Norte 0.2 -- -- 97
2020-09-05 08:00:00 18.3 0 Calma 5 Sudeste 0 -- -- 95
2020-09-05 07:00:00 18.2 2 Nordeste 4 Noroeste 0 -- -- 96
2020-09-05 06:00:00 18.2 0 Calma 5 Noroeste 0 -- -- 95
2020-09-05 05:00:00 18.1 2 Nordeste 4 Nordeste 0 -- -- 95
2020-09-05 04:00:00 18.1 2 Este 4 Este 0 -- -- 94
2020-09-05 03:00:00 18.5 0 Calma 5 Noroeste 0 -- -- 93
2020-09-05 02:00:00 18.3 4 Noroeste 5 Norte 0 -- -- 94
2020-09-05 01:00:00 18.3 3 Oeste 5 Noroeste 0 -- -- 93
2020-09-05 00:00:00 18.3 0 Calma 7 Noroeste 0 -- -- 91
2020-09-04 23:00:00 19.1 0 Calma 7 Oeste 0 -- -- 85
2020-09-04 22:00:00 20.6 4 Norte 6 Noroeste 0 -- -- 84
2020-09-04 21:00:00 22.9 4 Norte 8 Noroeste 0 -- -- 74
2020-09-04 20:00:00 26.1 2 Noroeste 9 Nordeste 0 -- -- 63
2020-09-04 19:00:00 26.3 8 Nordeste 15 Norte 0 -- -- 59
2020-09-04 18:00:00 27.8 9 Norte 19 Norte 0 -- -- 57
2020-09-04 17:00:00 28.9 13 Nordeste 22 Norte 0 -- -- 56
2020-09-04 16:00:00 29.7 11 Norte 19 Norte 0 -- -- 53
2020-09-04 15:00:00 31.3 9 Norte 15 Norte 0 -- -- 46
2020-09-04 14:00:00 31.9 5 Sudeste 11 Este 0 -- -- 32
2020-09-04 13:00:00 29.9 5 Norte 10 Norte 0 -- -- 34
2020-09-04 12:00:00 27.2 2 Sudoeste 12 Norte 0 -- -- 45
2020-09-04 11:00:00 21.5 6 Noroeste 10 Norte 0 -- -- 74
2020-09-04 10:00:00 15.5 2 Norte 5 Nordeste 0 -- -- 98
2020-09-04 09:00:00 12.3 2 Nordeste 5 Sudeste 0 -- -- 100
2020-09-04 08:00:00 10.8 0 Calma 5 Norte 0 -- -- 98
2020-09-04 07:00:00 11.6 0 Calma 3 Nordeste 0 -- -- 97
2020-09-04 06:00:00 12 0 Calma 3 Noroeste 0 -- -- 97
2020-09-04 05:00:00 13 0 Calma 2 Oeste 0 -- -- 96
2020-09-04 04:00:00 13.5 0 Calma 0 Calma 0 -- -- 96
2020-09-04 03:00:00 14.1 0 Calma 3 Noroeste 0 -- -- 96
2020-09-04 02:00:00 14.6 0 Calma 5 Noroeste 0 -- -- 94
2020-09-04 01:00:00 15.5 0 Calma 4 Sudoeste 0 -- -- 92
2020-09-04 00:00:00 16.5 0 Calma 3 Sudoeste 0 -- -- 91
2020-09-03 23:00:00 17.6 0 Calma 2 Sudoeste 0 -- -- 87
2020-09-03 22:00:00 18.9 2 Sudoeste 3 Sudoeste 0 -- -- 84
2020-09-03 21:00:00 21.2 2 Oeste 9 Norte 0 -- -- 75
2020-09-03 20:00:00 23.9 6 Norte 12 Norte 0 -- -- 63
2020-09-03 19:00:00 25.4 7 Norte 15 Norte 0 -- -- 58
2020-09-03 18:00:00 26.1 8 Norte 17 Norte 0 -- -- 56
2020-09-03 17:00:00 26.7 11 Nordeste 17 Norte 0 -- -- 51
2020-09-03 16:00:00 27.2 5 Nordeste 13 Norte 0 -- -- 47
2020-09-03 15:00:00 26.3 7 Norte 13 Noroeste 0 -- -- 46
2020-09-03 14:00:00 25.3 6 Nordeste 11 Nordeste 0 -- -- 50
2020-09-03 13:00:00 23.8 3 Nordeste 11 Nordeste 0 -- -- 54
2020-09-03 12:00:00 20.9 2 Norte 6 Oeste 0 -- -- 59
2020-09-03 11:00:00 17.3 3 Este 5 Nordeste 0 -- -- 85
2020-09-03 10:00:00 12.7 3 Sudeste 6 Noroeste 0 -- -- 100
2020-09-03 09:00:00 10.4 0 Calma -- -- 0 -- -- 100
2020-09-03 08:00:00 9.6 0 Calma -- -- 0 -- -- 98
2020-09-03 07:00:00 9.9 0 Calma -- -- 0 -- -- 98
2020-09-03 06:00:00 10.3 0 Calma -- -- 0 -- -- 98
2020-09-03 05:00:00 10.6 0 Calma 2 Norte 0 -- -- 97
2020-09-03 04:00:00 11.1 0 Calma 4 Noroeste 0 -- -- 97
2020-09-03 03:00:00 11.7 0 Calma 3 Noroeste 0 -- -- 96
2020-09-03 02:00:00 12.3 0 Calma 2 Sudoeste 0 -- -- 94
2020-09-03 01:00:00 12.8 2 Oeste 2 Oeste 0 -- -- 92
2020-09-03 00:00:00 13.7 0 Calma 4 Norte 0 -- -- 91
2020-09-02 23:00:00 14.7 3 Sudoeste 5 Noroeste 0 -- -- 89
2020-09-02 22:00:00 16.4 2 Sudoeste 5 Sudoeste 0 -- -- 84
2020-09-02 21:00:00 18.7 3 Sudoeste 6 Noroeste 0 -- -- 74
2020-09-02 20:00:00 21.2 5 Noroeste 18 Noroeste 0 -- -- 65
2020-09-02 19:00:00 22.2 11 Norte 20 Norte 0 -- -- 64
2020-09-02 18:00:00 23 14 Norte 22 Norte 0 -- -- 61
2020-09-02 17:00:00 23.3 13 Norte 24 Norte 0 -- -- 60
2020-09-02 16:00:00 22.9 14 Norte 25 Noroeste 0 -- -- 66
2020-09-02 15:00:00 23 11 Norte 22 Norte 0 -- -- 62
2020-09-02 14:00:00 22.4 11 Norte 19 Norte 0 -- -- 62
2020-09-02 13:00:00 21.6 6 Noroeste 14 Norte 0 -- -- 64
2020-09-02 12:00:00 20.8 4 Noroeste 9 Nordeste 0 -- -- 64
2020-09-02 11:00:00 18.4 4 Norte 6 Norte 0 -- -- 84
2020-09-02 10:00:00 15.3 0 Calma 4 Nordeste 0 -- -- 99
2020-09-02 09:00:00 14.1 0 Calma 2 Sudoeste 0 -- -- 99
2020-09-02 08:00:00 13.5 0 Calma 4 Noroeste 0 -- -- 99
2020-09-02 07:00:00 13.3 0 Calma 5 Noroeste 0 -- -- 98
2020-09-02 06:00:00 13.2 0 Calma 4 Este 0 -- -- 97
2020-09-02 05:00:00 13.5 2 Sudoeste 4 Sudoeste 0 -- -- 96
2020-09-02 04:00:00 14.5 3 Oeste 6 Noroeste 0 -- -- 96
2020-09-02 03:00:00 14.9 0 Calma 4 Nordeste 0 -- -- 96
2020-09-02 02:00:00 14.9 2 Norte 5 Noroeste 0 -- -- 95
2020-09-02 01:00:00 14.8 0 Calma 3 Noroeste 0 -- -- 95
2020-09-02 00:00:00 15 3 Norte 5 Norte 0 -- -- 93
2020-09-01 23:00:00 16.6 0 Calma 4 Norte 0 -- -- 88
2020-09-01 22:00:00 17.6 0 Calma 13 Noroeste 0 -- -- 83
2020-09-01 21:00:00 18.3 4 Oeste 15 Norte 0 -- -- 78
2020-09-01 20:00:00 19.1 8 Norte 18 Norte 0 -- -- 77
2020-09-01 19:00:00 20.3 8 Norte 21 Noroeste 0 -- -- 68
2020-09-01 18:00:00 21.7 9 Norte 26 Norte 0 -- -- 61
2020-09-01 17:00:00 22 12 Nordeste 24 Nordeste 0 -- -- 60
2020-09-01 16:00:00 22 12 Norte 23 Nordeste 0 -- -- 62
2020-09-01 15:00:00 22.6 9 Norte 19 Nordeste 0 -- -- 52
2020-09-01 14:00:00 21.9 12 Nordeste 19 Nordeste 0 -- -- 57
2020-09-01 13:00:00 21.3 5 Noroeste 13 Noroeste 0 -- -- 57
2020-09-01 12:00:00 19.5 3 Nordeste 6 Este 0 -- -- 62
2020-09-01 11:00:00 17.3 0 Calma 7 Este 0 -- -- 79
2020-09-01 10:00:00 14.4 3 Este 5 Este 0 -- -- 90
2020-09-01 09:00:00 11.7 0 Calma 2 Este 0 -- -- 96
2020-09-01 08:00:00 10.5 2 Noroeste 4 Noroeste 0 -- -- 97
2020-09-01 07:00:00 10.8 0 Calma 5 Norte 0 -- -- 96
2020-09-01 06:00:00 11.3 0 Calma -- -- 0 -- -- 95
2020-09-01 05:00:00 11.7 0 Calma 4 Noroeste 0 -- -- 95
2020-09-01 04:00:00 11.7 0 Calma 3 Norte 0 -- -- 94
2020-09-01 03:00:00 11.9 3 Noroeste 6 Norte 0 -- -- 94
2020-09-01 02:00:00 12.6 0 Calma 5 Norte 0 -- -- 92
2020-09-01 01:00:00 12.9 0 Calma 5 Norte 0 -- -- 91
2020-09-01 00:00:00 13.4 3 Sudoeste 6 Noroeste 0 -- -- 87
2020-08-31 23:00:00 14.9 5 Noroeste 8 Noroeste 0 -- -- 84
2020-08-31 22:00:00 16.3 3 Sur 7 Oeste 0 -- -- 81
2020-08-31 21:00:00 18.8 2 Noroeste 8 Norte 0 -- -- 76
2020-08-31 20:00:00 20.7 2 Oeste 9 Oeste 0 -- -- 69
2020-08-31 19:00:00 21.3 5 Norte 15 Norte 0 -- -- 61
2020-08-31 18:00:00 22.9 9 Norte 16 Norte 0 -- -- 51
2020-08-31 17:00:00 23.3 6 Norte 17 Norte 0 -- -- 44
2020-08-31 16:00:00 23.5 9 Norte 15 Norte 0 -- -- 34
2020-08-31 15:00:00 22.6 8 Norte 15 Nordeste 0 -- -- 53
2020-08-31 14:00:00 21.6 8 Nordeste 14 Nordeste 0 -- -- 51
2020-08-31 13:00:00 21.5 4 Nordeste 9 Norte 0 -- -- 55
2020-08-31 12:00:00 18.9 5 Noroeste 8 Norte 0 -- -- 63
2020-08-31 11:00:00 15 3 Noroeste 6 Norte 0 -- -- 83
2020-08-31 10:00:00 9.9 4 Norte 6 Noroeste 0 -- -- 100
2020-08-31 09:00:00 7.5 0 Calma 4 Sudoeste 0 -- -- 100
2020-08-31 08:00:00 6.6 0 Calma 4 Nordeste 0 -- -- 100
2020-08-31 07:00:00 7 0 Calma 2 Norte 0 -- -- 100
2020-08-31 06:00:00 7.4 0 Calma 2 Sudeste 0 -- -- 99
2020-08-31 05:00:00 7.7 0 Calma 4 Oeste 0 -- -- 99
2020-08-31 04:00:00 8.2 0 Calma 5 Noroeste 0 -- -- 99
2020-08-31 03:00:00 8.4 2 Sudeste 3 Sudeste 0 -- -- 98
2020-08-31 02:00:00 9.1 0 Calma 4 Noroeste 0 -- -- 98
2020-08-31 01:00:00 9.6 0 Calma 3 Norte 0 -- -- 97
2020-08-31 00:00:00 10.2 0 Calma 4 Nordeste 0 -- -- 95
2020-08-30 23:00:00 11.4 2 Noroeste 4 Noroeste 0 -- -- 94
2020-08-30 22:00:00 12.4 0 Calma 5 Este 0 -- -- 90
2020-08-30 21:00:00 14.5 0 Calma 6 Este 0 -- -- 83
2020-08-30 20:00:00 16.2 0 Calma 9 Este 0 -- -- 75
2020-08-30 19:00:00 16.2 4 Sudeste 9 Sudeste 0 -- -- 77
2020-08-30 18:00:00 14.8 8 Oeste 21 Noroeste 0 -- -- 80
2020-08-30 17:00:00 16.2 5 Oeste 19 Noroeste 0.2 -- -- 77
2020-08-30 16:00:00 15.6 11 Noroeste 21 Noroeste 0.2 -- -- 83
2020-08-30 15:00:00 15.6 3 Sur 8 Sur 0 -- -- 83
2020-08-30 14:00:00 14.2 3 Oeste 19 Oeste 0.8 -- -- 89
2020-08-30 13:00:00 13.9 13 Oeste 33 Noroeste 0.8 -- -- 90
2020-08-30 12:00:00 14.3 5 Nordeste 13 Este 0 -- -- 93
2020-08-30 11:00:00 13.4 8 Sudeste 13 Sudeste 0.4 -- -- 95
2020-08-30 10:00:00 12.9 9 Este 13 Este 2 -- -- 100
2020-08-30 09:00:00 11.9 2 Sur 9 Sudeste 0.4 -- -- 100
2020-08-30 08:00:00 11.3 2 Este 8 Noroeste 0.2 -- -- 100
2020-08-30 07:00:00 11.4 0 Calma 4 Sudeste 0 -- -- 100
2020-08-30 06:00:00 12 3 Sur 8 Este 0.4 -- -- 100
2020-08-30 05:00:00 12 4 Sudeste 8 Sudoeste 7.6 -- -- 100
2020-08-30 04:00:00 11.9 2 Norte 6 Este 0.2 -- -- 100
2020-08-30 03:00:00 12 2 Sudeste 7 Este 1.8 -- -- 100
2020-08-30 02:00:00 12 0 Calma 8 Sudeste 1.6 -- -- 100
2020-08-30 01:00:00 12 0 Calma 10 Noroeste 1 -- -- 100
2020-08-30 00:00:00 11.7 3 Sur 12 Sudeste 0.2 -- -- 99
2020-08-29 23:00:00 12 2 Sur 45 Norte 6.6 -- -- 98
2020-08-29 22:00:00 13 4 Sudeste 11 Oeste 0 -- -- 89
2020-08-29 21:00:00 14.8 10 Noroeste 20 Noroeste 0 -- -- 76
2020-08-29 20:00:00 16 13 Noroeste 32 Noroeste 0 -- -- 65
2020-08-29 19:00:00 16.4 13 Norte 48 Noroeste 0 -- -- 72
2020-08-29 18:00:00 15.7 22 Norte 39 Norte 1.2 -- -- 87
2020-08-29 17:00:00 16 20 Norte 43 Noroeste 0.4 -- -- 88
2020-08-29 16:00:00 17.5 21 Noroeste 38 Noroeste 2 -- -- 78
2020-08-29 15:00:00 16.2 6 Oeste 25 Oeste 1.6 -- -- 92
2020-08-29 14:00:00 15.7 10 Noroeste 21 Noroeste 1.8 -- -- 91
2020-08-29 13:00:00 15 9 Noroeste 19 Noroeste 1.6 -- -- 91
2020-08-29 12:00:00 14.6 2 Este 7 Este 1 -- -- 93
2020-08-29 11:00:00 14.1 3 Sudeste 10 Sudeste 1.2 -- -- 92
2020-08-29 10:00:00 13.8 3 Oeste 11 Noroeste 1.6 -- -- 94
2020-08-29 09:00:00 12.9 2 Sur 8 Noroeste 1.2 -- -- 97
2020-08-29 08:00:00 12.6 3 Sur 8 Sudeste 0.8 -- -- 96
2020-08-29 07:00:00 12.8 5 Norte 9 Noroeste 0.2 -- -- 95
2020-08-29 06:00:00 12.9 0 Calma 6 Sudoeste 0 -- -- 95
2020-08-29 05:00:00 12.6 2 Sudeste 9 Oeste 0 -- -- 96
2020-08-29 04:00:00 12.3 2 Norte 6 Este 0 -- -- 95
2020-08-29 03:00:00 12.7 3 Nordeste 6 Noroeste 0 -- -- 94
2020-08-29 02:00:00 13.2 0 Calma 8 Sudeste 0.2 -- -- 90
2020-08-29 01:00:00 13.1 3 Nordeste 8 Este 0 -- -- 89
2020-08-29 00:00:00 14.4 2 Sur 10 Norte 0 -- -- 89
2020-08-28 23:00:00 15.9 5 Noroeste 11 Norte 0 -- -- 81
2020-08-28 22:00:00 15.9 2 Sur 17 Noroeste 0 -- -- 85
2020-08-28 21:00:00 16.8 3 Norte 12 Noroeste 0 -- -- 76
2020-08-28 20:00:00 16.5 0 Calma 15 Noroeste 0 -- -- 87
2020-08-28 19:00:00 16.6 4 Norte 13 Nordeste 0 -- -- 83
2020-08-28 18:00:00 16.5 3 Sudeste 15 Noroeste 0 -- -- 91
2020-08-28 17:00:00 16.3 8 Norte 22 Noroeste 0.6 -- -- 89
2020-08-28 16:00:00 16.2 5 Sudeste 9 Sudeste 2 -- -- 94
2020-08-28 15:00:00 16.7 3 Sudoeste 25 Noroeste 0.2 -- -- 89
2020-08-28 14:00:00 18.2 3 Norte 12 Norte 0 -- -- 75
2020-08-28 13:00:00 17.4 7 Sudeste 15 Este 0 -- -- 87
2020-08-28 12:00:00 16.3 6 Sudeste 10 Este 0.4 -- -- 94
2020-08-28 11:00:00 15.8 4 Este 12 Sudeste 0.2 -- -- 96
2020-08-28 10:00:00 15.9 4 Este 10 Sudeste 0 -- -- 95
2020-08-28 09:00:00 15.9 0 Calma 8 Este 0.8 -- -- 97
2020-08-28 08:00:00 16 0 Calma 9 Oeste 1.4 -- -- 97
2020-08-28 07:00:00 16.3 8 Noroeste 19 Noroeste 1.4 -- -- 94
2020-08-28 06:00:00 17.1 9 Noroeste 24 Noroeste 1 -- -- 95
2020-08-28 05:00:00 18 8 Noroeste 18 Noroeste 0.2 -- -- 96
2020-08-28 04:00:00 18.5 7 Noroeste 28 Noroeste 1 -- -- 95
2020-08-28 03:00:00 19.4 3 Sur 6 Sudeste 0.2 -- -- 96
2020-08-28 02:00:00 19.7 0 Calma 2 Sudeste 0.2 -- -- 94
2020-08-28 01:00:00 20.1 2 Noroeste 5 Noroeste 0 -- -- 94
2020-08-28 00:00:00 20.4 2 Norte 9 Norte 0 -- -- 93